createdAt,value
2022-12-17T00:00:15.515Z,17.57
2022-12-17T00:04:35.516Z,15.73
2022-12-17T00:08:55.278Z,15.87
2022-12-17T00:13:15.828Z,15.80
2022-12-17T00:17:35.723Z,14.83
2022-12-17T00:21:56.356Z,14.73
2022-12-17T00:26:16.574Z,14.50
2022-12-17T00:30:36.120Z,16.30
2022-12-17T00:34:55.579Z,15.00
2022-12-17T00:39:16.589Z,15.57
2022-12-17T00:43:36.596Z,16.33
2022-12-17T00:47:56.633Z,14.93
2022-12-17T00:52:16.666Z,14.87
2022-12-17T00:56:36.377Z,16.63
2022-12-17T01:00:56.270Z,16.73
2022-12-17T01:05:16.438Z,14.13
2022-12-17T01:09:19.704Z,15.83
2022-12-17T01:13:39.622Z,16.60
2022-12-17T01:17:59.400Z,17.03
2022-12-17T01:22:18.914Z,15.30
2022-12-17T01:26:38.472Z,18.70
2022-12-17T01:30:57.875Z,17.77
2022-12-17T01:35:17.647Z,16.70
2022-12-17T01:39:37.550Z,16.47
2022-12-17T01:43:57.232Z,17.57
2022-12-17T01:48:19.797Z,18.57
2022-12-17T01:52:39.470Z,19.17
2022-12-17T01:57:01.246Z,17.40
2022-12-17T02:01:23.099Z,18.13
2022-12-17T02:05:46.543Z,18.40
2022-12-17T02:10:18.897Z,23.60
2022-12-17T02:14:54.986Z,20.60
2022-12-17T02:19:39.573Z,18.00
2022-12-17T02:24:06.088Z,21.13
2022-12-17T02:28:26.893Z,21.37
2022-12-17T02:32:47.788Z,22.60
2022-12-17T02:37:07.492Z,23.93
2022-12-17T02:41:31.018Z,25.03
2022-12-17T02:45:51.390Z,26.27
2022-12-17T02:50:12.381Z,21.33
2022-12-17T02:54:32.184Z,23.00
2022-12-17T02:58:51.878Z,22.17
2022-12-17T03:03:11.852Z,24.13
2022-12-17T03:07:31.603Z,22.50
2022-12-17T03:11:51.323Z,23.97
2022-12-17T03:16:10.991Z,25.60
2022-12-17T03:20:30.773Z,24.50
2022-12-17T03:24:50.784Z,22.20
2022-12-17T03:29:10.492Z,23.97
2022-12-17T03:33:30.254Z,21.83
2022-12-17T03:37:50.215Z,20.53
2022-12-17T03:42:09.967Z,25.47
2022-12-17T03:46:29.753Z,23.67
2022-12-17T03:50:49.542Z,20.93
2022-12-17T03:55:09.274Z,22.80
2022-12-17T03:59:29.212Z,22.83
2022-12-17T04:03:49.045Z,23.70
2022-12-17T04:08:09.427Z,22.97
2022-12-17T04:12:29.371Z,23.47
2022-12-17T04:16:48.866Z,25.90
2022-12-17T04:21:08.381Z,22.37
2022-12-17T04:25:17.536Z,24.80
2022-12-17T04:29:36.878Z,22.40
2022-12-17T04:33:56.360Z,23.03
2022-12-17T04:38:16.274Z,25.07
2022-12-17T04:42:36.151Z,21.03
2022-12-17T04:46:56.004Z,22.33
2022-12-17T04:51:15.640Z,22.53
2022-12-17T04:55:35.415Z,22.70
2022-12-17T04:59:55.156Z,23.93
2022-12-17T05:04:14.946Z,22.60
2022-12-17T05:08:39.635Z,22.43
2022-12-17T05:12:55.957Z,19.80
2022-12-17T05:17:15.445Z,24.70
2022-12-17T05:21:35.233Z,21.80
2022-12-17T05:25:55.172Z,22.40
2022-12-17T05:30:15.014Z,25.77
2022-12-17T05:34:34.721Z,23.60
2022-12-17T05:38:54.159Z,19.70
2022-12-17T05:43:16.561Z,21.70
2022-12-17T05:47:36.215Z,19.23
2022-12-17T05:51:56.022Z,20.00
2022-12-17T05:56:15.711Z,20.40
2022-12-17T06:00:36.034Z,21.93
2022-12-17T06:04:45.128Z,19.63
2022-12-17T06:09:04.874Z,20.47
2022-12-17T06:13:24.587Z,19.37
2022-12-17T06:17:44.515Z,20.10
2022-12-17T06:22:04.246Z,17.30
2022-12-17T06:26:24.021Z,19.30
2022-12-17T06:30:43.684Z,19.77
2022-12-17T06:35:03.423Z,20.00
2022-12-17T06:39:23.170Z,23.10
2022-12-17T06:43:42.900Z,20.80
2022-12-17T06:48:02.381Z,24.70
2022-12-17T06:52:21.958Z,32.30
2022-12-17T06:56:41.451Z,22.77
2022-12-17T07:01:01.363Z,26.97
2022-12-17T07:05:23.154Z,22.93
2022-12-17T07:09:42.984Z,19.90
2022-12-17T07:14:02.703Z,23.93
2022-12-17T07:18:22.416Z,17.67
2022-12-17T07:22:42.120Z,16.63
2022-12-17T07:27:02.062Z,19.63
2022-12-17T07:31:21.825Z,20.87
2022-12-17T07:35:41.646Z,27.67
2022-12-17T07:40:01.416Z,16.23
2022-12-17T07:44:21.039Z,24.90
2022-12-17T07:48:40.778Z,17.03
2022-12-17T07:53:01.355Z,22.20
2022-12-17T07:57:21.112Z,17.13
2022-12-17T08:01:40.916Z,15.90
2022-12-17T08:06:00.602Z,17.20
2022-12-17T08:10:20.152Z,14.87
2022-12-17T08:14:39.926Z,13.37
2022-12-17T08:18:59.554Z,18.90
2022-12-17T08:23:21.254Z,17.33
2022-12-17T08:27:40.958Z,19.10
2022-12-17T08:32:00.507Z,17.77
2022-12-17T08:36:20.399Z,16.83
2022-12-17T08:40:40.173Z,23.47
2022-12-17T08:44:59.863Z,19.37
2022-12-17T08:49:19.517Z,17.40
2022-12-17T08:53:39.334Z,18.50
2022-12-17T08:57:59.341Z,16.23
2022-12-17T09:02:19.295Z,17.80
2022-12-17T09:06:39.500Z,16.67
2022-12-17T09:10:59.336Z,16.97
2022-12-17T09:15:19.223Z,18.37
2022-12-17T09:19:38.888Z,19.83
2022-12-17T09:23:58.489Z,18.20
2022-12-17T09:28:19.586Z,17.70
2022-12-17T09:32:39.349Z,22.50
2022-12-17T09:36:58.893Z,18.90
2022-12-17T09:41:22.020Z,20.63
2022-12-17T09:45:45.793Z,19.17
2022-12-17T09:50:05.453Z,20.63
2022-12-17T09:54:31.279Z,19.90
2022-12-17T09:58:54.045Z,20.40
2022-12-17T10:03:14.267Z,20.10
2022-12-17T10:07:37.914Z,19.53
2022-12-17T10:11:57.556Z,21.03
2022-12-17T10:16:18.079Z,30.20
2022-12-17T10:21:01.327Z,23.87
2022-12-17T10:25:24.285Z,21.33
2022-12-17T10:29:48.003Z,23.70
2022-12-17T10:34:05.470Z,23.00
2022-12-17T10:38:37.046Z,20.80
2022-12-17T10:42:58.012Z,20.97
2022-12-17T10:47:01.111Z,20.97
2022-12-17T10:51:22.940Z,24.50
2022-12-17T10:55:47.625Z,25.43
2022-12-17T11:00:07.351Z,23.43
2022-12-17T11:04:48.475Z,23.57
2022-12-17T11:08:54.564Z,23.80
2022-12-17T11:13:17.389Z,23.47
2022-12-17T11:17:37.934Z,28.97
2022-12-17T11:22:07.312Z,25.40
2022-12-17T11:26:31.033Z,22.60
2022-12-17T11:30:54.399Z,22.73
2022-12-17T11:35:26.477Z,24.90
2022-12-17T11:39:50.352Z,24.57
2022-12-17T11:44:19.485Z,24.37
2022-12-17T11:48:46.233Z,23.83
2022-12-17T11:53:27.674Z,22.53
2022-12-17T11:58:18.157Z,24.10
2022-12-17T12:02:45.111Z,23.83
2022-12-17T12:07:11.730Z,24.77
2022-12-17T12:11:47.751Z,24.37
2022-12-17T12:16:31.040Z,26.60
2022-12-17T12:21:12.360Z,25.63
2022-12-17T12:25:39.188Z,24.50
2022-12-17T12:30:17.853Z,23.77
2022-12-17T12:34:41.504Z,16.93
2022-12-17T12:39:02.053Z,24.90
2022-12-17T12:43:27.200Z,19.67
2022-12-17T12:47:51.012Z,22.93
2022-12-17T12:52:13.756Z,22.03
2022-12-17T12:56:54.367Z,23.50
2022-12-17T13:01:14.184Z,25.63
2022-12-17T13:05:33.714Z,30.30
2022-12-17T13:09:41.604Z,26.10
2022-12-17T13:13:48.488Z,25.57
2022-12-17T13:17:59.456Z,25.53
2022-12-17T13:22:24.110Z,25.00
2022-12-17T13:26:26.590Z,23.90
2022-12-17T13:30:36.838Z,25.37
2022-12-17T13:34:50.482Z,27.50
2022-12-17T13:38:55.471Z,24.57
2022-12-17T13:42:57.172Z,25.80
2022-12-17T13:47:00.270Z,21.83
2022-12-17T13:51:04.527Z,26.57
2022-12-17T13:55:09.470Z,27.23
2022-12-17T13:59:22.151Z,25.93
2022-12-17T14:03:42.985Z,24.70
2022-12-17T14:07:28.196Z,32.40
2022-12-17T14:11:49.241Z,30.27
2022-12-17T14:15:52.241Z,31.10
2022-12-17T14:19:59.832Z,31.63
2022-12-17T14:24:01.984Z,28.80
2022-12-17T14:28:25.247Z,30.30
2022-12-17T14:32:35.842Z,32.20
2022-12-17T14:36:39.320Z,27.97
2022-12-17T14:40:40.614Z,27.67
2022-12-17T14:44:54.834Z,32.67
2022-12-17T14:49:01.335Z,29.67
2022-12-17T14:53:06.307Z,31.47
2022-12-17T14:57:11.367Z,30.80
2022-12-17T15:01:13.377Z,36.73
2022-12-17T15:05:15.776Z,28.37
2022-12-17T15:09:17.003Z,28.47
2022-12-17T15:13:18.207Z,30.50
2022-12-17T15:17:19.388Z,28.93
2022-12-17T15:21:21.440Z,29.53
2022-12-17T15:25:23.363Z,29.20
2022-12-17T15:29:25.564Z,28.47
2022-12-17T15:33:27.530Z,31.10
2022-12-17T15:37:29.547Z,25.30
2022-12-17T15:41:49.912Z,24.90
2022-12-17T15:45:52.408Z,24.03
2022-12-17T15:49:54.082Z,24.03
2022-12-17T15:53:56.586Z,24.83
2022-12-17T15:57:58.501Z,27.37
2022-12-17T16:02:00.409Z,26.17
2022-12-17T16:06:02.469Z,30.75
2022-12-17T16:10:05.869Z,26.50
2022-12-17T16:14:07.206Z,21.80
2022-12-17T16:18:08.504Z,25.50
2022-12-17T16:22:09.664Z,25.00
2022-12-17T16:26:11.067Z,24.37
2022-12-17T16:30:13.554Z,28.07
2022-12-17T16:34:15.317Z,25.10
2022-12-17T16:38:16.802Z,25.60
2022-12-17T16:42:17.906Z,27.63
2022-12-17T16:46:28.976Z,29.60
2022-12-17T16:50:30.289Z,23.37
2022-12-17T16:54:32.951Z,25.67
2022-12-17T16:58:34.605Z,27.77
2022-12-17T17:02:36.470Z,23.17
2022-12-17T17:06:40.625Z,27.50
2022-12-17T17:10:42.223Z,27.57
2022-12-17T17:14:43.825Z,25.07
2022-12-17T17:18:45.927Z,26.40
2022-12-17T17:22:47.034Z,24.27
2022-12-17T17:26:49.735Z,27.83
2022-12-17T17:30:55.075Z,26.73
2022-12-17T17:34:56.240Z,29.20
2022-12-17T17:38:59.345Z,25.10
2022-12-17T17:43:01.072Z,28.97
2022-12-17T17:47:03.018Z,28.67
2022-12-17T17:51:08.139Z,31.83
2022-12-17T17:55:09.920Z,27.70
2022-12-17T17:59:14.000Z,30.00
2022-12-17T18:03:15.736Z,28.03
2022-12-17T18:07:25.379Z,32.00
2022-12-17T18:11:23.491Z,27.30
2022-12-17T18:15:25.404Z,27.17
2022-12-17T18:19:26.909Z,30.73
2022-12-17T18:23:28.434Z,27.13
2022-12-17T18:27:30.167Z,31.40
2022-12-17T18:31:31.538Z,28.13
2022-12-17T18:35:33.740Z,27.40
2022-12-17T18:39:35.576Z,26.43
2022-12-17T18:43:39.318Z,29.07
2022-12-17T18:47:42.186Z,30.53
2022-12-17T18:51:46.852Z,25.40
2022-12-17T18:55:48.794Z,28.17
2022-12-17T18:59:50.074Z,25.53
2022-12-17T19:03:52.737Z,28.50
2022-12-17T19:07:54.543Z,27.20
2022-12-17T19:11:56.869Z,25.83
2022-12-17T19:16:04.755Z,28.73
2022-12-17T19:20:07.093Z,26.23
2022-12-17T19:24:15.063Z,30.33
2022-12-17T19:28:17.454Z,41.17
2022-12-17T19:32:18.621Z,33.80
2022-12-17T19:36:26.578Z,36.30
2022-12-17T19:40:24.010Z,33.20
2022-12-17T19:44:26.438Z,34.63
2022-12-17T19:48:29.859Z,39.00
2022-12-17T19:52:31.547Z,33.50
2022-12-17T19:56:34.067Z,28.00
2022-12-17T20:00:37.983Z,26.47
2022-12-17T20:04:41.702Z,36.00
2022-12-17T20:08:43.778Z,30.93
2022-12-17T20:12:45.540Z,27.43
2022-12-17T20:16:50.478Z,28.30
2022-12-17T20:20:52.831Z,26.80
2022-12-17T20:24:53.988Z,24.77
2022-12-17T20:28:56.206Z,28.03
2022-12-17T20:32:57.326Z,26.70
2022-12-17T20:37:01.866Z,25.50
2022-12-17T20:41:11.107Z,31.83
2022-12-17T20:45:15.375Z,25.53
2022-12-17T20:49:20.517Z,25.33
2022-12-17T20:53:22.128Z,28.10
2022-12-17T20:57:23.827Z,27.60
2022-12-17T21:01:27.527Z,28.40
2022-12-17T21:05:29.044Z,26.47
2022-12-17T21:09:30.476Z,28.67
2022-12-17T21:13:32.752Z,27.93
2022-12-17T21:17:33.921Z,33.20
2022-12-17T21:21:36.898Z,32.10
2022-12-17T21:25:38.298Z,29.80
2022-12-17T21:29:39.760Z,29.80
2022-12-17T21:33:41.061Z,30.70
2022-12-17T21:37:42.770Z,31.83
2022-12-17T21:41:49.900Z,31.23
2022-12-17T21:45:55.023Z,31.27
2022-12-17T21:49:56.221Z,26.83
2022-12-17T21:54:00.281Z,26.33
2022-12-17T21:58:02.453Z,28.47
2022-12-17T22:02:03.818Z,24.83
2022-12-17T22:06:07.342Z,26.77
2022-12-17T22:10:38.562Z,29.23
2022-12-17T22:14:17.201Z,26.60
2022-12-17T22:18:15.514Z,25.93
2022-12-17T22:22:16.654Z,26.03
2022-12-17T22:26:19.415Z,26.43
2022-12-17T22:30:39.293Z,25.50
2022-12-17T22:35:41.083Z,26.70
2022-12-17T22:41:27.968Z,27.53
2022-12-17T22:44:40.697Z,26.70
2022-12-17T22:47:10.726Z,26.63
2022-12-17T22:51:25.105Z,26.30
2022-12-17T22:55:16.942Z,25.50
2022-12-17T22:59:18.953Z,23.23
2022-12-17T23:03:20.307Z,20.87
2022-12-17T23:07:24.569Z,25.03
2022-12-17T23:11:26.433Z,24.47
2022-12-17T23:15:31.441Z,23.27
2022-12-17T23:19:32.674Z,20.30
2022-12-17T23:23:33.915Z,22.10
2022-12-17T23:27:35.052Z,23.30
2022-12-17T23:31:39.402Z,23.07
2022-12-17T23:35:40.663Z,22.97
2022-12-17T23:39:41.960Z,25.77
2022-12-17T23:43:44.172Z,23.50
2022-12-17T23:47:45.352Z,22.13
2022-12-17T23:51:46.442Z,24.70
2022-12-17T23:55:48.726Z,24.07
2022-12-17T23:59:49.926Z,23.90
